createdAt,value
2019-03-12T00:00:36.380Z,12.13
2019-03-12T00:05:43.035Z,13.05
2019-03-12T00:10:49.672Z,14.78
2019-03-12T00:15:56.835Z,12.85
2019-03-12T00:21:03.454Z,13.18
2019-03-12T00:26:10.186Z,15.38
2019-03-12T00:31:16.806Z,16.55
2019-03-12T00:36:23.450Z,18.42
2019-03-12T00:41:30.003Z,18.02
2019-03-12T00:46:36.468Z,17.35
2019-03-12T00:51:43.160Z,14.10
2019-03-12T00:56:49.703Z,17.05
2019-03-12T01:01:56.279Z,16.62
2019-03-12T01:07:02.946Z,15.70
2019-03-12T01:12:09.569Z,18.57
2019-03-12T01:17:16.140Z,17.77
2019-03-12T01:22:22.822Z,22.10
2019-03-12T01:27:29.304Z,21.40
2019-03-12T01:32:35.867Z,19.45
2019-03-12T01:37:42.473Z,21.90
2019-03-12T01:42:52.265Z,19.70
2019-03-12T01:47:57.426Z,16.12
2019-03-12T01:53:04.001Z,20.20
2019-03-12T01:58:10.553Z,19.45
2019-03-12T02:03:17.085Z,19.05
2019-03-12T02:08:23.737Z,21.52
2019-03-12T02:13:30.247Z,18.32
2019-03-12T02:18:36.729Z,19.37
2019-03-12T02:23:43.446Z,21.50
2019-03-12T02:28:50.067Z,19.62
2019-03-12T02:33:56.609Z,20.48
2019-03-12T02:39:03.162Z,17.85
2019-03-12T02:44:11.431Z,20.40
2019-03-12T02:49:18.018Z,31.25
2019-03-12T02:54:24.573Z,20.80
2019-03-12T02:59:31.223Z,22.82
2019-03-12T03:04:37.799Z,23.38
2019-03-12T03:09:44.504Z,21.25
2019-03-12T03:14:51.209Z,19.45
2019-03-12T03:19:57.829Z,23.87
2019-03-12T03:25:04.748Z,23.07
2019-03-12T03:30:16.735Z,20.75
2019-03-12T03:35:23.454Z,20.05
2019-03-12T03:40:30.068Z,18.92
2019-03-12T03:45:36.757Z,17.27
2019-03-12T03:50:43.370Z,18.02
2019-03-12T03:55:49.986Z,16.02
2019-03-12T04:00:56.633Z,16.30
2019-03-12T04:06:04.762Z,14.60
2019-03-12T04:11:11.471Z,13.35
2019-03-12T04:16:18.087Z,11.83
2019-03-12T04:21:24.756Z,10.40
2019-03-12T04:26:31.138Z,9.88
2019-03-12T04:31:37.768Z,10.70
2019-03-12T04:36:44.351Z,8.93
2019-03-12T04:41:51.090Z,13.75
2019-03-12T04:46:57.722Z,11.90
2019-03-12T04:52:04.373Z,11.35
2019-03-12T04:57:10.853Z,10.80
2019-03-12T05:02:17.470Z,11.10
2019-03-12T05:07:24.113Z,11.68
2019-03-12T05:12:30.794Z,15.93
2019-03-12T05:17:37.715Z,13.30
2019-03-12T05:22:44.532Z,16.48
2019-03-12T05:27:51.007Z,13.85
2019-03-12T05:32:57.605Z,12.25
2019-03-12T05:38:04.210Z,14.18
2019-03-12T05:43:10.765Z,12.00
2019-03-12T05:48:17.224Z,15.30
2019-03-12T05:53:38.950Z,9.95
2019-03-12T05:58:45.551Z,13.15
2019-03-12T06:03:52.042Z,11.08
2019-03-12T06:08:58.672Z,11.08
2019-03-12T06:14:05.817Z,14.35
2019-03-12T06:19:12.316Z,7.87
2019-03-12T06:24:18.716Z,9.08
2019-03-12T06:29:25.181Z,9.18
2019-03-12T06:34:47.718Z,9.20
2019-03-12T06:40:13.007Z,9.68
2019-03-12T06:45:41.248Z,10.10
2019-03-12T06:51:05.767Z,4.60
2019-03-12T06:56:21.298Z,7.15
2019-03-12T07:01:45.393Z,7.33
2019-03-12T07:07:11.612Z,6.45
2019-03-12T07:12:42.493Z,8.78
2019-03-12T07:18:10.905Z,7.92
2019-03-12T07:23:42.045Z,9.28
2019-03-12T07:29:22.828Z,4.58
2019-03-12T07:34:47.037Z,6.12
2019-03-12T07:40:21.286Z,9.20
2019-03-12T07:45:32.447Z,7.72
2019-03-12T07:51:06.823Z,6.40
2019-03-12T07:56:32.280Z,5.00
2019-03-12T08:02:00.487Z,4.53
2019-03-12T08:07:23.274Z,9.50
2019-03-12T08:12:39.391Z,3.37
2019-03-12T08:18:07.324Z,7.42
2019-03-12T08:23:18.870Z,5.45
2019-03-12T08:28:37.431Z,3.80
2019-03-12T08:33:56.433Z,5.12
2019-03-12T08:39:24.710Z,3.75
2019-03-12T08:44:44.812Z,2.67
2019-03-12T08:50:11.701Z,5.22
2019-03-12T08:55:44.595Z,2.72
2019-03-12T09:01:28.462Z,4.90
2019-03-12T09:06:43.616Z,5.65
2019-03-12T09:12:08.946Z,5.25
2019-03-12T09:17:45.115Z,3.35
2019-03-12T09:23:01.632Z,4.28
2019-03-12T09:28:42.304Z,4.15
2019-03-12T09:33:55.158Z,2.17
2019-03-12T09:39:16.276Z,2.40
2019-03-12T09:44:39.764Z,3.92
2019-03-12T09:50:11.167Z,3.00
2019-03-12T09:55:34.394Z,2.67
2019-03-12T10:01:02.986Z,2.20
2019-03-12T10:06:17.366Z,2.10
2019-03-12T10:11:40.358Z,3.00
2019-03-12T10:17:08.701Z,2.65
2019-03-12T10:22:43.243Z,3.25
2019-03-12T10:28:15.140Z,2.05
2019-03-12T10:33:35.675Z,6.45
2019-03-12T10:39:56.247Z,4.67
2019-03-12T10:45:11.314Z,3.08
2019-03-12T10:50:17.997Z,4.12
2019-03-12T10:55:25.776Z,3.85
2019-03-12T11:00:32.636Z,4.42
2019-03-12T11:05:45.981Z,4.35
2019-03-12T11:10:47.606Z,2.92
2019-03-12T11:15:54.205Z,4.72
2019-03-12T11:21:00.847Z,6.22
2019-03-12T11:26:07.456Z,4.87
2019-03-12T11:31:13.932Z,8.50
2019-03-12T11:36:20.568Z,4.65
2019-03-12T11:41:27.566Z,4.55
2019-03-12T11:46:42.985Z,4.22
2019-03-12T11:51:42.533Z,5.25
2019-03-12T11:56:49.202Z,7.15
2019-03-12T12:01:55.831Z,8.48
2019-03-12T12:07:02.553Z,3.52
2019-03-12T12:12:09.061Z,5.12
2019-03-12T12:17:15.779Z,6.83
2019-03-12T12:22:22.325Z,6.83
2019-03-12T12:27:28.846Z,4.33
2019-03-12T12:32:35.389Z,4.30
2019-03-12T12:37:42.002Z,5.42
2019-03-12T12:42:49.614Z,5.25
2019-03-12T12:47:56.148Z,7.92
2019-03-12T12:53:02.818Z,6.12
2019-03-12T12:58:09.894Z,4.47
2019-03-12T13:03:16.508Z,5.45
2019-03-12T13:08:23.210Z,6.80
2019-03-12T13:13:29.857Z,5.85
2019-03-12T13:18:36.380Z,9.75
2019-03-12T13:23:43.014Z,4.97
2019-03-12T13:28:49.606Z,7.80
2019-03-12T13:33:56.066Z,6.50
2019-03-12T13:39:02.619Z,6.97
2019-03-12T13:44:10.843Z,7.50
2019-03-12T13:49:17.390Z,8.35
2019-03-12T13:54:23.970Z,6.10
2019-03-12T13:59:30.491Z,7.42
2019-03-12T14:04:37.094Z,7.42
2019-03-12T14:09:43.818Z,5.78
2019-03-12T14:14:50.346Z,5.87
2019-03-12T14:19:56.974Z,9.25
2019-03-12T14:25:03.704Z,4.42
2019-03-12T14:30:10.806Z,8.70
2019-03-12T14:35:17.449Z,4.45
2019-03-12T14:40:24.182Z,6.62
2019-03-12T14:45:31.084Z,5.35
2019-03-12T14:50:37.804Z,6.60
2019-03-12T14:55:44.620Z,5.80
2019-03-12T15:00:51.818Z,7.30
2019-03-12T15:05:58.639Z,5.97
2019-03-12T15:11:05.594Z,5.22
2019-03-12T15:16:12.579Z,6.28
2019-03-12T15:21:19.234Z,5.95
2019-03-12T15:26:25.873Z,5.75
2019-03-12T15:31:32.518Z,3.65
2019-03-12T15:36:39.167Z,6.28
2019-03-12T15:41:45.833Z,6.30
2019-03-12T15:47:13.707Z,7.03
2019-03-12T15:52:20.251Z,4.42
2019-03-12T15:57:26.938Z,6.45
2019-03-12T16:02:33.949Z,5.60
2019-03-12T16:07:40.494Z,6.78
2019-03-12T16:12:47.147Z,6.55
2019-03-12T16:17:53.809Z,4.25
2019-03-12T16:23:00.378Z,7.78
2019-03-12T16:28:07.068Z,4.83
2019-03-12T16:33:13.543Z,2.75
2019-03-12T16:38:20.167Z,38.63
2019-03-12T16:43:28.745Z,5.92
2019-03-12T16:48:38.287Z,8.13
2019-03-12T16:53:43.631Z,5.28
2019-03-12T16:58:50.263Z,2.47
2019-03-12T17:03:57.037Z,4.22
2019-03-12T17:09:04.371Z,5.70
2019-03-12T17:14:12.483Z,5.70
2019-03-12T17:19:20.163Z,7.55
2019-03-12T17:24:26.720Z,4.30
2019-03-12T17:29:33.242Z,6.17
2019-03-12T17:34:39.874Z,7.33
2019-03-12T17:39:46.532Z,5.70
2019-03-12T17:44:53.288Z,5.72
2019-03-12T17:49:59.911Z,5.75
2019-03-12T17:55:08.110Z,7.17
2019-03-12T18:00:19.992Z,5.85
2019-03-12T18:05:26.739Z,4.55
2019-03-12T18:10:33.328Z,5.12
2019-03-12T18:15:39.984Z,9.60
2019-03-12T18:20:46.759Z,5.30
2019-03-12T18:25:53.481Z,7.20
2019-03-12T18:31:00.081Z,3.80
2019-03-12T18:36:06.784Z,4.87
2019-03-12T18:41:14.022Z,7.87
2019-03-12T18:46:20.588Z,2.90
2019-03-12T18:51:27.138Z,5.70
2019-03-12T18:56:33.676Z,4.25
2019-03-12T19:01:43.601Z,4.45
2019-03-12T19:06:50.710Z,5.78
2019-03-12T19:11:57.252Z,5.33
2019-03-12T19:17:05.853Z,4.47
2019-03-12T19:22:14.251Z,5.22
2019-03-12T19:27:20.921Z,5.12
2019-03-12T19:32:40.179Z,4.58
2019-03-12T19:37:46.828Z,2.50
2019-03-12T19:42:53.509Z,4.40
2019-03-12T19:48:00.159Z,3.72
2019-03-12T19:53:06.907Z,2.80
2019-03-12T19:58:13.523Z,5.05
2019-03-12T20:03:20.339Z,3.98
2019-03-12T20:08:27.062Z,4.15
2019-03-12T20:14:49.616Z,7.12
2019-03-12T20:20:55.678Z,2.60
2019-03-12T20:27:22.259Z,5.15
2019-03-12T20:34:02.364Z,2.12
2019-03-12T20:40:15.014Z,2.92
2019-03-12T20:46:35.204Z,4.37
2019-03-12T20:52:54.380Z,2.52
2019-03-12T20:58:59.923Z,6.28
2019-03-12T21:05:06.663Z,2.45
2019-03-12T21:11:01.351Z,2.70
2019-03-12T21:17:01.690Z,3.10
2019-03-12T21:23:03.397Z,2.98
2019-03-12T21:29:18.338Z,3.37
2019-03-12T21:34:24.883Z,2.08
2019-03-12T21:39:31.604Z,2.85
2019-03-12T21:44:38.201Z,1.80
2019-03-12T21:49:44.834Z,2.12
2019-03-12T21:54:51.440Z,3.77
2019-03-12T21:59:57.919Z,3.37
2019-03-12T22:05:04.758Z,2.70
2019-03-12T22:10:12.153Z,2.08
2019-03-12T22:15:18.704Z,1.10
2019-03-12T22:20:25.240Z,1.42
2019-03-12T22:25:31.715Z,1.72
2019-03-12T22:30:38.360Z,1.82
2019-03-12T22:35:44.962Z,1.87
2019-03-12T22:40:51.597Z,2.02
2019-03-12T22:45:58.222Z,2.20
2019-03-12T22:51:04.831Z,2.37
2019-03-12T22:56:11.365Z,3.17
2019-03-12T23:01:17.995Z,3.87
2019-03-12T23:06:42.711Z,2.85
2019-03-12T23:12:07.328Z,2.12
2019-03-12T23:17:15.123Z,1.72
2019-03-12T23:22:23.308Z,1.62
2019-03-12T23:27:29.990Z,1.57
2019-03-12T23:32:36.763Z,2.25
2019-03-12T23:37:43.486Z,2.02
2019-03-12T23:42:50.204Z,2.15
2019-03-12T23:47:56.824Z,3.50
2019-03-12T23:53:03.444Z,2.45
2019-03-12T23:58:10.258Z,2.37
